sensor_id;sensor_type;location;lat;lon;timestamp;P1;durP1;ratioP1;P2;durP2;ratioP2
27839;SDS011;15207;42.182;24.308;2023-11-22T00:01:27;27.40;;;14.70;;
27839;SDS011;15207;42.182;24.308;2023-11-22T00:03:53;32.40;;;17.30;;
27839;SDS011;15207;42.182;24.308;2023-11-22T00:06:18;32.40;;;16.50;;
27839;SDS011;15207;42.182;24.308;2023-11-22T00:08:46;31.40;;;17.10;;
27839;SDS011;15207;42.182;24.308;2023-11-22T00:11:12;29.90;;;17.10;;
27839;SDS011;15207;42.182;24.308;2023-11-22T00:16:04;30.05;;;17.10;;
27839;SDS011;15207;42.182;24.308;2023-11-22T00:18:29;32.85;;;18.75;;
27839;SDS011;15207;42.182;24.308;2023-11-22T00:20:55;33.40;;;19.00;;
27839;SDS011;15207;42.182;24.308;2023-11-22T00:23:22;39.05;;;20.75;;
27839;SDS011;15207;42.182;24.308;2023-11-22T00:25:52;32.20;;;18.80;;
27839;SDS011;15207;42.182;24.308;2023-11-22T00:28:18;35.10;;;19.25;;
27839;SDS011;15207;42.182;24.308;2023-11-22T00:30:43;37.00;;;20.20;;
27839;SDS011;15207;42.182;24.308;2023-11-22T00:33:09;33.20;;;19.60;;
27839;SDS011;15207;42.182;24.308;2023-11-22T00:35:34;32.10;;;18.95;;
27839;SDS011;15207;42.182;24.308;2023-11-22T00:40:25;33.90;;;18.60;;
27839;SDS011;15207;42.182;24.308;2023-11-22T00:42:51;35.85;;;18.95;;
27839;SDS011;15207;42.182;24.308;2023-11-22T00:47:43;33.30;;;17.40;;
27839;SDS011;15207;42.182;24.308;2023-11-22T00:50:09;30.95;;;16.80;;
27839;SDS011;15207;42.182;24.308;2023-11-22T00:55:00;35.80;;;17.50;;
27839;SDS011;15207;42.182;24.308;2023-11-22T00:57:25;30.90;;;16.90;;
27839;SDS011;15207;42.182;24.308;2023-11-22T00:59:52;33.25;;;16.70;;
27839;SDS011;15207;42.182;24.308;2023-11-22T01:02:19;29.00;;;15.70;;
27839;SDS011;15207;42.182;24.308;2023-11-22T01:04:44;25.45;;;16.30;;
27839;SDS011;15207;42.182;24.308;2023-11-22T01:07:10;29.77;;;15.30;;
27839;SDS011;15207;42.182;24.308;2023-11-22T01:09:35;29.85;;;15.65;;
27839;SDS011;15207;42.182;24.308;2023-11-22T01:12:01;25.50;;;15.70;;
27839;SDS011;15207;42.182;24.308;2023-11-22T01:14:26;29.15;;;15.30;;
27839;SDS011;15207;42.182;24.308;2023-11-22T01:16:52;27.00;;;14.95;;
27839;SDS011;15207;42.182;24.308;2023-11-22T01:19:19;25.85;;;13.50;;
27839;SDS011;15207;42.182;24.308;2023-11-22T01:21:45;29.85;;;14.75;;
27839;SDS011;15207;42.182;24.308;2023-11-22T01:24:10;25.80;;;14.80;;
27839;SDS011;15207;42.182;24.308;2023-11-22T01:26:36;25.40;;;14.50;;
27839;SDS011;15207;42.182;24.308;2023-11-22T01:29:03;24.50;;;14.85;;
27839;SDS011;15207;42.182;24.308;2023-11-22T01:31:29;23.60;;;14.00;;
27839;SDS011;15207;42.182;24.308;2023-11-22T01:33:54;25.00;;;14.50;;
27839;SDS011;15207;42.182;24.308;2023-11-22T01:36:20;23.35;;;13.65;;
27839;SDS011;15207;42.182;24.308;2023-11-22T01:38:45;22.75;;;12.95;;
27839;SDS011;15207;42.182;24.308;2023-11-22T01:43:38;23.40;;;12.95;;
27839;SDS011;15207;42.182;24.308;2023-11-22T01:46:05;33.60;;;16.10;;
27839;SDS011;15207;42.182;24.308;2023-11-22T01:48:32;33.20;;;16.30;;
27839;SDS011;15207;42.182;24.308;2023-11-22T01:50:57;37.80;;;16.20;;
27839;SDS011;15207;42.182;24.308;2023-11-22T01:53:23;32.95;;;14.85;;
27839;SDS011;15207;42.182;24.308;2023-11-22T01:55:49;27.60;;;14.80;;
27839;SDS011;15207;42.182;24.308;2023-11-22T01:58:16;25.20;;;13.65;;
27839;SDS011;15207;42.182;24.308;2023-11-22T02:00:43;24.60;;;13.20;;
27839;SDS011;15207;42.182;24.308;2023-11-22T02:03:14;24.30;;;14.10;;
27839;SDS011;15207;42.182;24.308;2023-11-22T02:05:41;26.00;;;14.60;;
27839;SDS011;15207;42.182;24.308;2023-11-22T02:08:11;23.33;;;14.43;;
27839;SDS011;15207;42.182;24.308;2023-11-22T02:10:37;26.25;;;14.15;;
27839;SDS011;15207;42.182;24.308;2023-11-22T02:13:03;23.80;;;13.70;;
27839;SDS011;15207;42.182;24.308;2023-11-22T02:17:55;25.20;;;14.40;;
27839;SDS011;15207;42.182;24.308;2023-11-22T02:20:22;29.35;;;14.60;;
27839;SDS011;15207;42.182;24.308;2023-11-22T02:22:47;26.45;;;14.10;;
27839;SDS011;15207;42.182;24.308;2023-11-22T02:25:13;24.40;;;13.90;;
27839;SDS011;15207;42.182;24.308;2023-11-22T02:30:05;33.10;;;15.50;;
27839;SDS011;15207;42.182;24.308;2023-11-22T02:32:31;35.15;;;17.90;;
27839;SDS011;15207;42.182;24.308;2023-11-22T02:34:58;31.05;;;16.65;;
27839;SDS011;15207;42.182;24.308;2023-11-22T02:42:43;29.90;;;16.65;;
27839;SDS011;15207;42.182;24.308;2023-11-22T02:45:08;26.90;;;15.80;;
27839;SDS011;15207;42.182;24.308;2023-11-22T02:50:00;27.20;;;17.50;;
27839;SDS011;15207;42.182;24.308;2023-11-22T02:52:27;38.97;;;17.60;;
27839;SDS011;15207;42.182;24.308;2023-11-22T02:54:52;27.20;;;15.40;;
27839;SDS011;15207;42.182;24.308;2023-11-22T02:57:18;28.10;;;16.00;;
27839;SDS011;15207;42.182;24.308;2023-11-22T02:59:43;27.05;;;15.20;;
27839;SDS011;15207;42.182;24.308;2023-11-22T03:02:09;28.35;;;15.90;;
27839;SDS011;15207;42.182;24.308;2023-11-22T03:04:35;28.20;;;16.25;;
27839;SDS011;15207;42.182;24.308;2023-11-22T03:07:01;27.10;;;16.50;;
27839;SDS011;15207;42.182;24.308;2023-11-22T03:09:26;30.40;;;17.10;;
27839;SDS011;15207;42.182;24.308;2023-11-22T03:11:52;32.40;;;17.00;;
27839;SDS011;15207;42.182;24.308;2023-11-22T03:14:17;27.80;;;15.95;;
27839;SDS011;15207;42.182;24.308;2023-11-22T03:16:43;30.25;;;17.20;;
27839;SDS011;15207;42.182;24.308;2023-11-22T03:19:08;30.40;;;16.50;;
27839;SDS011;15207;42.182;24.308;2023-11-22T03:21:35;33.40;;;17.90;;
27839;SDS011;15207;42.182;24.308;2023-11-22T03:26:28;30.50;;;16.10;;
27839;SDS011;15207;42.182;24.308;2023-11-22T03:31:19;27.50;;;16.15;;
27839;SDS011;15207;42.182;24.308;2023-11-22T03:33:46;32.80;;;16.10;;
27839;SDS011;15207;42.182;24.308;2023-11-22T03:36:12;34.70;;;18.00;;
27839;SDS011;15207;42.182;24.308;2023-11-22T03:38:38;28.10;;;16.30;;
27839;SDS011;15207;42.182;24.308;2023-11-22T03:41:04;36.50;;;19.05;;
27839;SDS011;15207;42.182;24.308;2023-11-22T03:43:30;31.70;;;18.40;;
27839;SDS011;15207;42.182;24.308;2023-11-22T03:45:55;31.80;;;17.00;;
27839;SDS011;15207;42.182;24.308;2023-11-22T03:48:21;31.60;;;17.05;;
27839;SDS011;15207;42.182;24.308;2023-11-22T03:50:48;29.85;;;17.40;;
27839;SDS011;15207;42.182;24.308;2023-11-22T03:53:14;32.00;;;17.60;;
27839;SDS011;15207;42.182;24.308;2023-11-22T03:55:39;29.85;;;17.35;;
27839;SDS011;15207;42.182;24.308;2023-11-22T04:00:30;35.25;;;17.05;;
27839;SDS011;15207;42.182;24.308;2023-11-22T04:02:57;29.90;;;17.60;;
27839;SDS011;15207;42.182;24.308;2023-11-22T04:07:50;28.60;;;16.90;;
27839;SDS011;15207;42.182;24.308;2023-11-22T04:12:42;32.05;;;16.70;;
27839;SDS011;15207;42.182;24.308;2023-11-22T04:15:07;30.75;;;17.15;;
27839;SDS011;15207;42.182;24.308;2023-11-22T04:17:34;32.75;;;16.40;;
27839;SDS011;15207;42.182;24.308;2023-11-22T04:22:34;28.80;;;16.10;;
27839;SDS011;15207;42.182;24.308;2023-11-22T04:27:26;29.25;;;16.20;;
27839;SDS011;15207;42.182;24.308;2023-11-22T04:29:51;30.00;;;15.00;;
27839;SDS011;15207;42.182;24.308;2023-11-22T04:32:17;28.67;;;15.45;;
27839;SDS011;15207;42.182;24.308;2023-11-22T04:34:42;30.05;;;14.60;;
27839;SDS011;15207;42.182;24.308;2023-11-22T04:37:07;29.40;;;14.80;;
27839;SDS011;15207;42.182;24.308;2023-11-22T04:39:33;28.10;;;15.20;;
27839;SDS011;15207;42.182;24.308;2023-11-22T04:44:24;25.90;;;14.20;;
27839;SDS011;15207;42.182;24.308;2023-11-22T04:46:50;26.40;;;13.40;;
27839;SDS011;15207;42.182;24.308;2023-11-22T04:49:16;24.10;;;12.50;;
27839;SDS011;15207;42.182;24.308;2023-11-22T04:51:42;23.55;;;12.95;;
27839;SDS011;15207;42.182;24.308;2023-11-22T04:54:10;28.70;;;13.00;;
27839;SDS011;15207;42.182;24.308;2023-11-22T04:59:01;30.10;;;14.00;;
27839;SDS011;15207;42.182;24.308;2023-11-22T05:01:34;42.10;;;13.80;;
27839;SDS011;15207;42.182;24.308;2023-11-22T05:04:00;27.65;;;13.75;;
27839;SDS011;15207;42.182;24.308;2023-11-22T05:06:25;32.30;;;13.10;;
27839;SDS011;15207;42.182;24.308;2023-11-22T05:08:52;24.10;;;13.25;;
27839;SDS011;15207;42.182;24.308;2023-11-22T05:11:18;27.30;;;14.40;;
27839;SDS011;15207;42.182;24.308;2023-11-22T05:13:44;27.10;;;15.40;;
27839;SDS011;15207;42.182;24.308;2023-11-22T05:16:09;25.15;;;14.80;;
27839;SDS011;15207;42.182;24.308;2023-11-22T05:18:35;24.85;;;15.90;;
27839;SDS011;15207;42.182;24.308;2023-11-22T05:21:01;27.95;;;15.80;;
27839;SDS011;15207;42.182;24.308;2023-11-22T05:23:29;24.90;;;14.10;;
27839;SDS011;15207;42.182;24.308;2023-11-22T05:25:56;23.85;;;15.20;;
27839;SDS011;15207;42.182;24.308;2023-11-22T05:28:22;27.70;;;15.85;;
27839;SDS011;15207;42.182;24.308;2023-11-22T05:30:47;25.20;;;15.90;;
27839;SDS011;15207;42.182;24.308;2023-11-22T05:33:13;32.90;;;17.70;;
27839;SDS011;15207;42.182;24.308;2023-11-22T05:35:39;26.65;;;16.35;;
27839;SDS011;15207;42.182;24.308;2023-11-22T05:38:05;30.85;;;18.60;;
27839;SDS011;15207;42.182;24.308;2023-11-22T05:40:31;24.00;;;15.60;;
27839;SDS011;15207;42.182;24.308;2023-11-22T05:42:57;33.80;;;17.10;;
27839;SDS011;15207;42.182;24.308;2023-11-22T05:45:23;29.10;;;16.10;;
27839;SDS011;15207;42.182;24.308;2023-11-22T05:47:48;34.60;;;17.50;;
27839;SDS011;15207;42.182;24.308;2023-11-22T05:50:14;51.40;;;18.80;;
27839;SDS011;15207;42.182;24.308;2023-11-22T05:52:39;36.95;;;18.00;;
27839;SDS011;15207;42.182;24.308;2023-11-22T05:55:05;35.00;;;19.10;;
27839;SDS011;15207;42.182;24.308;2023-11-22T05:59:56;32.10;;;17.80;;
27839;SDS011;15207;42.182;24.308;2023-11-22T06:02:22;35.30;;;18.60;;
27839;SDS011;15207;42.182;24.308;2023-11-22T06:07:12;29.30;;;18.10;;
27839;SDS011;15207;42.182;24.308;2023-11-22T06:09:38;27.80;;;17.30;;
27839;SDS011;15207;42.182;24.308;2023-11-22T06:12:03;25.80;;;17.05;;
27839;SDS011;15207;42.182;24.308;2023-11-22T06:14:30;27.20;;;17.30;;
27839;SDS011;15207;42.182;24.308;2023-11-22T06:16:55;34.00;;;16.60;;
27839;SDS011;15207;42.182;24.308;2023-11-22T06:19:21;30.90;;;16.90;;
27839;SDS011;15207;42.182;24.308;2023-11-22T06:21:46;40.60;;;19.80;;
27839;SDS011;15207;42.182;24.308;2023-11-22T06:24:11;37.20;;;18.70;;
27839;SDS011;15207;42.182;24.308;2023-11-22T06:26:41;176.15;;;25.85;;
27839;SDS011;15207;42.182;24.308;2023-11-22T06:31:33;33.00;;;20.00;;
27839;SDS011;15207;42.182;24.308;2023-11-22T06:33:59;32.08;;;18.85;;
27839;SDS011;15207;42.182;24.308;2023-11-22T06:36:26;38.40;;;20.60;;
27839;SDS011;15207;42.182;24.308;2023-11-22T06:38:52;38.90;;;20.60;;
27839;SDS011;15207;42.182;24.308;2023-11-22T06:41:19;41.60;;;23.00;;
27839;SDS011;15207;42.182;24.308;2023-11-22T06:43:46;49.10;;;24.00;;
27839;SDS011;15207;42.182;24.308;2023-11-22T06:48:42;43.75;;;22.85;;
27839;SDS011;15207;42.182;24.308;2023-11-22T06:51:09;48.70;;;22.90;;
27839;SDS011;15207;42.182;24.308;2023-11-22T06:53:34;49.85;;;23.00;;
27839;SDS011;15207;42.182;24.308;2023-11-22T06:56:00;41.40;;;21.20;;
27839;SDS011;15207;42.182;24.308;2023-11-22T06:58:26;50.80;;;21.00;;
27839;SDS011;15207;42.182;24.308;2023-11-22T07:00:51;41.40;;;21.30;;
27839;SDS011;15207;42.182;24.308;2023-11-22T07:05:42;44.80;;;28.40;;
27839;SDS011;15207;42.182;24.308;2023-11-22T07:08:08;57.90;;;29.95;;
27839;SDS011;15207;42.182;24.308;2023-11-22T07:10:33;40.60;;;23.25;;
27839;SDS011;15207;42.182;24.308;2023-11-22T07:12:59;44.30;;;24.60;;
27839;SDS011;15207;42.182;24.308;2023-11-22T07:15:28;50.50;;;26.00;;
27839;SDS011;15207;42.182;24.308;2023-11-22T07:17:54;37.00;;;23.00;;
27839;SDS011;15207;42.182;24.308;2023-11-22T07:20:20;47.10;;;23.40;;
27839;SDS011;15207;42.182;24.308;2023-11-22T07:22:45;40.30;;;21.50;;
27839;SDS011;15207;42.182;24.308;2023-11-22T07:25:11;39.20;;;22.40;;
27839;SDS011;15207;42.182;24.308;2023-11-22T07:27:46;38.40;;;21.87;;
27839;SDS011;15207;42.182;24.308;2023-11-22T07:30:12;40.25;;;23.75;;
27839;SDS011;15207;42.182;24.308;2023-11-22T07:32:39;32.05;;;19.70;;
27839;SDS011;15207;42.182;24.308;2023-11-22T07:35:05;46.10;;;24.40;;
27839;SDS011;15207;42.182;24.308;2023-11-22T07:37:33;56.15;;;28.70;;
27839;SDS011;15207;42.182;24.308;2023-11-22T07:40:01;57.80;;;28.25;;
27839;SDS011;15207;42.182;24.308;2023-11-22T07:42:28;57.80;;;28.90;;
27839;SDS011;15207;42.182;24.308;2023-11-22T07:44:54;127.80;;;50.10;;
27839;SDS011;15207;42.182;24.308;2023-11-22T07:47:21;32.50;;;18.70;;
27839;SDS011;15207;42.182;24.308;2023-11-22T07:49:48;82.20;;;21.60;;
27839;SDS011;15207;42.182;24.308;2023-11-22T07:52:13;79.45;;;38.00;;
27839;SDS011;15207;42.182;24.308;2023-11-22T07:54:39;76.50;;;37.60;;
27839;SDS011;15207;42.182;24.308;2023-11-22T07:57:05;100.00;;;55.10;;
27839;SDS011;15207;42.182;24.308;2023-11-22T07:59:32;45.40;;;29.00;;
27839;SDS011;15207;42.182;24.308;2023-11-22T08:01:57;44.80;;;25.20;;
27839;SDS011;15207;42.182;24.308;2023-11-22T08:04:23;50.40;;;23.20;;
27839;SDS011;15207;42.182;24.308;2023-11-22T08:06:48;37.20;;;21.20;;
27839;SDS011;15207;42.182;24.308;2023-11-22T08:09:14;43.55;;;23.05;;
27839;SDS011;15207;42.182;24.308;2023-11-22T08:11:41;47.97;;;24.17;;
27839;SDS011;15207;42.182;24.308;2023-11-22T08:14:07;45.00;;;22.90;;
27839;SDS011;15207;42.182;24.308;2023-11-22T08:21:28;46.90;;;26.90;;
27839;SDS011;15207;42.182;24.308;2023-11-22T08:23:54;46.10;;;26.90;;
27839;SDS011;15207;42.182;24.308;2023-11-22T08:26:19;50.65;;;27.30;;
27839;SDS011;15207;42.182;24.308;2023-11-22T08:31:10;48.30;;;26.80;;
27839;SDS011;15207;42.182;24.308;2023-11-22T08:33:36;45.10;;;26.50;;
27839;SDS011;15207;42.182;24.308;2023-11-22T08:38:29;48.50;;;27.00;;
27839;SDS011;15207;42.182;24.308;2023-11-22T08:41:00;46.77;;;26.50;;
27839;SDS011;15207;42.182;24.308;2023-11-22T08:43:26;45.40;;;24.80;;
27839;SDS011;15207;42.182;24.308;2023-11-22T08:45:52;35.40;;;21.80;;
27839;SDS011;15207;42.182;24.308;2023-11-22T08:50:43;38.40;;;20.90;;
27839;SDS011;15207;42.182;24.308;2023-11-22T08:53:09;33.30;;;20.80;;
27839;SDS011;15207;42.182;24.308;2023-11-22T09:00:26;35.95;;;20.70;;
27839;SDS011;15207;42.182;24.308;2023-11-22T09:02:53;35.90;;;21.70;;
27839;SDS011;15207;42.182;24.308;2023-11-22T09:05:20;45.85;;;28.15;;
27839;SDS011;15207;42.182;24.308;2023-11-22T09:07:46;77.10;;;42.80;;
27839;SDS011;15207;42.182;24.308;2023-11-22T09:12:39;80.60;;;43.55;;
27839;SDS011;15207;42.182;24.308;2023-11-22T09:15:14;80.40;;;44.50;;
27839;SDS011;15207;42.182;24.308;2023-11-22T09:22:36;93.20;;;47.10;;
27839;SDS011;15207;42.182;24.308;2023-11-22T09:25:09;112.55;;;55.00;;
27839;SDS011;15207;42.182;24.308;2023-11-22T09:30:03;100.60;;;50.95;;
27839;SDS011;15207;42.182;24.308;2023-11-22T09:32:30;105.37;;;53.00;;
27839;SDS011;15207;42.182;24.308;2023-11-22T09:34:56;98.35;;;48.20;;
27839;SDS011;15207;42.182;24.308;2023-11-22T09:37:23;97.20;;;48.50;;
27839;SDS011;15207;42.182;24.308;2023-11-22T09:39:50;58.90;;;29.40;;
27839;SDS011;15207;42.182;24.308;2023-11-22T09:42:16;38.70;;;20.60;;
27839;SDS011;15207;42.182;24.308;2023-11-22T09:44:41;36.85;;;19.95;;
27839;SDS011;15207;42.182;24.308;2023-11-22T09:47:08;34.10;;;19.80;;
27839;SDS011;15207;42.182;24.308;2023-11-22T09:49:35;37.40;;;22.00;;
27839;SDS011;15207;42.182;24.308;2023-11-22T09:52:05;32.55;;;21.90;;
27839;SDS011;15207;42.182;24.308;2023-11-22T09:57:05;42.80;;;24.50;;
27839;SDS011;15207;42.182;24.308;2023-11-22T09:59:35;56.60;;;28.00;;
27839;SDS011;15207;42.182;24.308;2023-11-22T10:02:05;57.75;;;28.50;;
27839;SDS011;15207;42.182;24.308;2023-11-22T10:04:31;61.80;;;26.50;;
27839;SDS011;15207;42.182;24.308;2023-11-22T10:06:57;59.45;;;26.70;;
27839;SDS011;15207;42.182;24.308;2023-11-22T10:09:23;45.55;;;25.00;;
27839;SDS011;15207;42.182;24.308;2023-11-22T10:11:49;44.40;;;22.80;;
27839;SDS011;15207;42.182;24.308;2023-11-22T10:14:24;45.25;;;22.25;;
27839;SDS011;15207;42.182;24.308;2023-11-22T10:17:00;33.40;;;20.10;;
27839;SDS011;15207;42.182;24.308;2023-11-22T10:24:29;33.80;;;18.60;;
27839;SDS011;15207;42.182;24.308;2023-11-22T10:26:56;30.40;;;16.90;;
27839;SDS011;15207;42.182;24.308;2023-11-22T10:29:24;26.10;;;15.50;;
27839;SDS011;15207;42.182;24.308;2023-11-22T10:34:18;26.75;;;15.85;;
27839;SDS011;15207;42.182;24.308;2023-11-22T10:36:46;30.10;;;18.10;;
27839;SDS011;15207;42.182;24.308;2023-11-22T10:39:12;41.70;;;22.80;;
27839;SDS011;15207;42.182;24.308;2023-11-22T10:46:33;31.30;;;19.30;;
27839;SDS011;15207;42.182;24.308;2023-11-22T10:48:58;33.10;;;17.60;;
27839;SDS011;15207;42.182;24.308;2023-11-22T10:51:24;38.55;;;25.15;;
27839;SDS011;15207;42.182;24.308;2023-11-22T10:53:55;44.70;;;24.30;;
27839;SDS011;15207;42.182;24.308;2023-11-22T10:56:21;48.25;;;25.45;;
27839;SDS011;15207;42.182;24.308;2023-11-22T10:58:48;35.70;;;21.77;;
27839;SDS011;15207;42.182;24.308;2023-11-22T11:01:16;44.00;;;26.05;;
27839;SDS011;15207;42.182;24.308;2023-11-22T11:03:45;30.90;;;18.00;;
27839;SDS011;15207;42.182;24.308;2023-11-22T11:08:40;31.00;;;17.85;;
27839;SDS011;15207;42.182;24.308;2023-11-22T11:13:34;26.90;;;16.10;;
27839;SDS011;15207;42.182;24.308;2023-11-22T11:18:25;23.90;;;16.30;;
27839;SDS011;15207;42.182;24.308;2023-11-22T11:20:54;29.90;;;17.00;;
27839;SDS011;15207;42.182;24.308;2023-11-22T11:23:22;27.15;;;17.05;;
27839;SDS011;15207;42.182;24.308;2023-11-22T11:25:53;25.70;;;16.50;;
27839;SDS011;15207;42.182;24.308;2023-11-22T11:28:22;23.40;;;15.20;;
27839;SDS011;15207;42.182;24.308;2023-11-22T11:30:53;20.60;;;15.50;;
27839;SDS011;15207;42.182;24.308;2023-11-22T11:33:26;21.95;;;15.50;;
27839;SDS011;15207;42.182;24.308;2023-11-22T11:35:52;24.15;;;15.60;;
27839;SDS011;15207;42.182;24.308;2023-11-22T11:38:21;21.40;;;15.35;;
27839;SDS011;15207;42.182;24.308;2023-11-22T11:40:55;24.60;;;14.60;;
27839;SDS011;15207;42.182;24.308;2023-11-22T11:43:22;24.70;;;15.50;;
27839;SDS011;15207;42.182;24.308;2023-11-22T11:46:08;23.90;;;15.70;;
27839;SDS011;15207;42.182;24.308;2023-11-22T11:51:00;22.65;;;15.70;;
27839;SDS011;15207;42.182;24.308;2023-11-22T11:53:26;24.30;;;15.45;;
27839;SDS011;15207;42.182;24.308;2023-11-22T11:55:51;24.40;;;16.40;;
27839;SDS011;15207;42.182;24.308;2023-11-22T12:00:44;23.20;;;15.95;;
27839;SDS011;15207;42.182;24.308;2023-11-22T12:03:09;23.30;;;15.90;;
27839;SDS011;15207;42.182;24.308;2023-11-22T12:08:04;26.80;;;17.15;;
27839;SDS011;15207;42.182;24.308;2023-11-22T12:10:30;27.95;;;17.30;;
27839;SDS011;15207;42.182;24.308;2023-11-22T12:12:56;26.70;;;17.40;;
27839;SDS011;15207;42.182;24.308;2023-11-22T12:15:21;27.50;;;16.90;;
27839;SDS011;15207;42.182;24.308;2023-11-22T12:17:50;27.10;;;19.00;;
27839;SDS011;15207;42.182;24.308;2023-11-22T12:22:43;27.85;;;19.35;;
27839;SDS011;15207;42.182;24.308;2023-11-22T12:27:42;32.00;;;18.40;;
27839;SDS011;15207;42.182;24.308;2023-11-22T12:30:13;33.20;;;21.20;;
27839;SDS011;15207;42.182;24.308;2023-11-22T12:32:54;35.50;;;20.90;;
27839;SDS011;15207;42.182;24.308;2023-11-22T12:35:20;36.80;;;21.30;;
27839;SDS011;15207;42.182;24.308;2023-11-22T12:40:12;41.30;;;21.00;;
27839;SDS011;15207;42.182;24.308;2023-11-22T12:42:47;28.00;;;20.30;;
27839;SDS011;15207;42.182;24.308;2023-11-22T12:45:23;32.40;;;20.80;;
27839;SDS011;15207;42.182;24.308;2023-11-22T12:47:50;27.15;;;17.15;;
27839;SDS011;15207;42.182;24.308;2023-11-22T12:53:14;32.00;;;19.20;;
27839;SDS011;15207;42.182;24.308;2023-11-22T12:55:44;34.70;;;21.20;;
27839;SDS011;15207;42.182;24.308;2023-11-22T13:00:37;32.50;;;20.65;;
27839;SDS011;15207;42.182;24.308;2023-11-22T13:03:07;46.40;;;21.60;;
27839;SDS011;15207;42.182;24.308;2023-11-22T13:08:00;35.57;;;20.53;;
27839;SDS011;15207;42.182;24.308;2023-11-22T13:10:26;49.60;;;22.60;;
27839;SDS011;15207;42.182;24.308;2023-11-22T13:12:52;36.05;;;19.95;;
27839;SDS011;15207;42.182;24.308;2023-11-22T13:15:19;30.00;;;20.90;;
27839;SDS011;15207;42.182;24.308;2023-11-22T13:17:54;31.40;;;20.20;;
27839;SDS011;15207;42.182;24.308;2023-11-22T13:20:24;29.80;;;20.75;;
27839;SDS011;15207;42.182;24.308;2023-11-22T13:22:51;34.40;;;21.60;;
27839;SDS011;15207;42.182;24.308;2023-11-22T13:27:49;29.30;;;21.30;;
27839;SDS011;15207;42.182;24.308;2023-11-22T13:30:18;30.50;;;21.05;;
27839;SDS011;15207;42.182;24.308;2023-11-22T13:32:47;36.75;;;21.55;;
27839;SDS011;15207;42.182;24.308;2023-11-22T13:35:14;39.00;;;21.70;;
27839;SDS011;15207;42.182;24.308;2023-11-22T13:37:46;39.40;;;22.60;;
27839;SDS011;15207;42.182;24.308;2023-11-22T13:40:19;33.20;;;22.20;;
27839;SDS011;15207;42.182;24.308;2023-11-22T13:42:48;28.95;;;20.60;;
27839;SDS011;15207;42.182;24.308;2023-11-22T13:45:18;34.75;;;21.00;;
27839;SDS011;15207;42.182;24.308;2023-11-22T13:47:44;35.20;;;21.70;;
27839;SDS011;15207;42.182;24.308;2023-11-22T13:50:12;32.80;;;21.20;;
27839;SDS011;15207;42.182;24.308;2023-11-22T13:52:46;34.80;;;22.20;;
27839;SDS011;15207;42.182;24.308;2023-11-22T13:55:15;31.20;;;22.35;;
27839;SDS011;15207;42.182;24.308;2023-11-22T13:57:44;34.35;;;21.83;;
27839;SDS011;15207;42.182;24.308;2023-11-22T14:00:10;39.85;;;22.27;;
27839;SDS011;15207;42.182;24.308;2023-11-22T14:02:38;33.30;;;21.42;;
27839;SDS011;15207;42.182;24.308;2023-11-22T14:05:05;33.60;;;21.80;;
27839;SDS011;15207;42.182;24.308;2023-11-22T14:07:37;37.25;;;21.15;;
27839;SDS011;15207;42.182;24.308;2023-11-22T14:10:03;29.20;;;21.70;;
27839;SDS011;15207;42.182;24.308;2023-11-22T14:12:30;32.20;;;21.00;;
27839;SDS011;15207;42.182;24.308;2023-11-22T14:14:59;33.00;;;21.50;;
27839;SDS011;15207;42.182;24.308;2023-11-22T14:17:25;31.57;;;21.17;;
27839;SDS011;15207;42.182;24.308;2023-11-22T14:22:16;33.43;;;21.23;;
27839;SDS011;15207;42.182;24.308;2023-11-22T14:24:45;38.50;;;22.80;;
27839;SDS011;15207;42.182;24.308;2023-11-22T14:27:11;38.80;;;22.90;;
27839;SDS011;15207;42.182;24.308;2023-11-22T14:29:37;39.10;;;21.25;;
27839;SDS011;15207;42.182;24.308;2023-11-22T14:34:28;33.60;;;21.75;;
27839;SDS011;15207;42.182;24.308;2023-11-22T14:36:54;34.00;;;23.10;;
27839;SDS011;15207;42.182;24.308;2023-11-22T14:39:19;32.90;;;21.67;;
27839;SDS011;15207;42.182;24.308;2023-11-22T14:41:46;32.00;;;21.90;;
27839;SDS011;15207;42.182;24.308;2023-11-22T14:44:11;33.63;;;23.13;;
27839;SDS011;15207;42.182;24.308;2023-11-22T14:46:37;37.40;;;22.80;;
27839;SDS011;15207;42.182;24.308;2023-11-22T14:49:03;36.20;;;23.15;;
27839;SDS011;15207;42.182;24.308;2023-11-22T14:51:30;33.70;;;22.90;;
27839;SDS011;15207;42.182;24.308;2023-11-22T14:56:21;34.93;;;22.63;;
27839;SDS011;15207;42.182;24.308;2023-11-22T14:58:46;33.67;;;22.80;;
27839;SDS011;15207;42.182;24.308;2023-11-22T15:01:18;32.35;;;23.25;;
27839;SDS011;15207;42.182;24.308;2023-11-22T15:06:10;50.30;;;26.30;;
27839;SDS011;15207;42.182;24.308;2023-11-22T15:11:01;37.60;;;24.10;;
27839;SDS011;15207;42.182;24.308;2023-11-22T15:13:27;47.20;;;27.90;;
27839;SDS011;15207;42.182;24.308;2023-11-22T15:18:18;51.65;;;27.50;;
27839;SDS011;15207;42.182;24.308;2023-11-22T15:20:43;47.60;;;27.90;;
27839;SDS011;15207;42.182;24.308;2023-11-22T15:23:09;43.40;;;27.80;;
27839;SDS011;15207;42.182;24.308;2023-11-22T15:25:34;45.70;;;26.55;;
27839;SDS011;15207;42.182;24.308;2023-11-22T15:30:25;52.20;;;28.50;;
27839;SDS011;15207;42.182;24.308;2023-11-22T15:32:51;51.40;;;28.05;;
27839;SDS011;15207;42.182;24.308;2023-11-22T15:35:18;55.10;;;28.30;;
27839;SDS011;15207;42.182;24.308;2023-11-22T15:37:45;54.35;;;30.50;;
27839;SDS011;15207;42.182;24.308;2023-11-22T15:40:10;60.20;;;30.70;;
27839;SDS011;15207;42.182;24.308;2023-11-22T15:42:38;52.80;;;30.40;;
27839;SDS011;15207;42.182;24.308;2023-11-22T15:45:03;62.97;;;32.70;;
27839;SDS011;15207;42.182;24.308;2023-11-22T15:47:29;52.00;;;30.25;;
27839;SDS011;15207;42.182;24.308;2023-11-22T15:49:55;55.10;;;30.70;;
27839;SDS011;15207;42.182;24.308;2023-11-22T15:52:20;48.60;;;29.05;;
27839;SDS011;15207;42.182;24.308;2023-11-22T15:54:46;56.78;;;28.88;;
27839;SDS011;15207;42.182;24.308;2023-11-22T15:57:12;53.35;;;29.25;;
27839;SDS011;15207;42.182;24.308;2023-11-22T16:04:30;44.40;;;26.65;;
27839;SDS011;15207;42.182;24.308;2023-11-22T16:06:55;48.70;;;27.10;;
27839;SDS011;15207;42.182;24.308;2023-11-22T16:09:21;53.93;;;27.77;;
27839;SDS011;15207;42.182;24.308;2023-11-22T16:11:46;42.80;;;27.50;;
27839;SDS011;15207;42.182;24.308;2023-11-22T16:14:12;60.00;;;31.80;;
27839;SDS011;15207;42.182;24.308;2023-11-22T16:16:40;62.05;;;29.85;;
27839;SDS011;15207;42.182;24.308;2023-11-22T16:21:32;46.45;;;28.00;;
27839;SDS011;15207;42.182;24.308;2023-11-22T16:24:00;55.10;;;27.95;;
27839;SDS011;15207;42.182;24.308;2023-11-22T16:26:25;52.30;;;28.70;;
27839;SDS011;15207;42.182;24.308;2023-11-22T16:28:53;58.30;;;30.50;;
27839;SDS011;15207;42.182;24.308;2023-11-22T16:31:19;65.30;;;32.30;;
27839;SDS011;15207;42.182;24.308;2023-11-22T16:33:45;57.95;;;30.75;;
27839;SDS011;15207;42.182;24.308;2023-11-22T16:36:11;66.10;;;33.20;;
27839;SDS011;15207;42.182;24.308;2023-11-22T16:38:37;76.80;;;37.50;;
27839;SDS011;15207;42.182;24.308;2023-11-22T16:41:03;70.50;;;36.75;;
27839;SDS011;15207;42.182;24.308;2023-11-22T16:43:30;58.20;;;32.10;;